createdAt,value
2019-02-11T00:02:40.544Z,105.83
2019-02-11T00:05:43.130Z,105.88
2019-02-11T00:08:45.755Z,105.96
2019-02-11T00:11:48.335Z,105.72
2019-02-11T00:14:51.172Z,105.84
2019-02-11T00:17:53.855Z,105.50
2019-02-11T00:20:56.593Z,105.39
2019-02-11T00:23:59.212Z,105.56
2019-02-11T00:27:01.967Z,105.68
2019-02-11T00:30:04.871Z,105.42
2019-02-11T00:33:07.628Z,105.72
2019-02-11T00:36:12.007Z,105.35
2019-02-11T00:39:14.598Z,105.56
2019-02-11T00:42:17.198Z,105.78
2019-02-11T00:45:19.913Z,105.34
2019-02-11T00:48:22.510Z,105.50
2019-02-11T00:51:25.134Z,105.42
2019-02-11T00:54:27.904Z,104.95
2019-02-11T00:57:31.614Z,104.81
2019-02-11T01:00:34.231Z,105.00
2019-02-11T01:03:37.108Z,104.62
2019-02-11T01:06:41.552Z,104.34
2019-02-11T01:09:44.351Z,104.02
2019-02-11T01:12:47.080Z,103.33
2019-02-11T01:15:49.777Z,103.71
2019-02-11T01:18:52.493Z,103.46
2019-02-11T01:21:55.262Z,103.14
2019-02-11T01:24:57.864Z,102.80
2019-02-11T01:28:00.576Z,102.70
2019-02-11T01:31:03.198Z,102.19
2019-02-11T01:34:05.849Z,102.39
2019-02-11T01:37:08.553Z,103.14
2019-02-11T01:40:11.258Z,102.75
2019-02-11T01:43:13.953Z,103.01
2019-02-11T01:46:16.501Z,101.86
2019-02-11T01:49:19.198Z,101.27
2019-02-11T01:52:21.914Z,101.81
2019-02-11T01:55:24.483Z,102.14
2019-02-11T01:58:27.248Z,102.78
2019-02-11T02:01:29.994Z,104.02
2019-02-11T02:04:32.723Z,104.83
2019-02-11T02:07:35.297Z,104.16
2019-02-11T02:10:37.836Z,103.62
2019-02-11T02:13:44.837Z,102.52
2019-02-11T02:16:45.207Z,102.42
2019-02-11T02:19:47.806Z,102.17
2019-02-11T02:22:50.523Z,101.71
2019-02-11T02:25:53.260Z,101.50
2019-02-11T02:28:56.068Z,100.37
2019-02-11T02:31:58.830Z,99.73
2019-02-11T02:35:02.366Z,99.53
2019-02-11T02:38:04.999Z,98.79
2019-02-11T02:41:07.937Z,99.30
2019-02-11T02:44:10.598Z,99.98
2019-02-11T02:47:13.317Z,100.64
2019-02-11T02:50:16.092Z,100.44
2019-02-11T02:53:18.783Z,100.67
2019-02-11T02:56:21.546Z,100.60
2019-02-11T02:59:24.174Z,100.96
2019-02-11T03:02:26.878Z,102.04
2019-02-11T03:05:29.566Z,103.00
2019-02-11T03:08:32.367Z,104.16
2019-02-11T03:11:34.985Z,104.77
2019-02-11T03:14:37.758Z,105.61
2019-02-11T03:17:40.351Z,105.92
2019-02-11T03:20:43.085Z,105.63
2019-02-11T03:23:45.797Z,106.11
2019-02-11T03:26:48.478Z,106.41
2019-02-11T03:29:51.132Z,106.92
2019-02-11T03:32:53.907Z,107.04
2019-02-11T03:35:56.652Z,107.07
2019-02-11T03:38:59.298Z,106.77
2019-02-11T03:42:01.893Z,106.03
2019-02-11T03:45:05.433Z,104.65
2019-02-11T03:48:08.312Z,103.84
2019-02-11T03:51:10.943Z,103.83
2019-02-11T03:54:13.653Z,104.03
2019-02-11T03:57:16.234Z,103.29
2019-02-11T04:00:18.909Z,103.03
2019-02-11T04:03:21.696Z,102.20
2019-02-11T04:06:24.387Z,102.35
2019-02-11T04:09:27.072Z,102.16
2019-02-11T04:12:29.698Z,102.00
2019-02-11T04:15:32.486Z,102.77
2019-02-11T04:18:35.107Z,100.30
2019-02-11T04:21:37.791Z,100.75
2019-02-11T04:24:40.460Z,101.04
2019-02-11T04:27:43.206Z,101.25
2019-02-11T04:30:46.171Z,100.27
2019-02-11T04:33:48.850Z,99.29
2019-02-11T04:36:51.435Z,97.50
2019-02-11T04:39:54.190Z,97.52
2019-02-11T04:42:56.952Z,97.25
2019-02-11T04:45:59.635Z,96.77
2019-02-11T04:49:02.355Z,93.39
2019-02-11T04:52:05.075Z,92.80
2019-02-11T04:55:07.918Z,94.22
2019-02-11T04:58:11.730Z,93.01
2019-02-11T05:01:14.376Z,93.26
2019-02-11T05:04:17.050Z,93.43
2019-02-11T05:07:19.826Z,92.71
2019-02-11T05:10:22.476Z,93.15
2019-02-11T05:13:25.172Z,91.42
2019-02-11T05:16:27.840Z,91.11
2019-02-11T05:19:30.546Z,91.31
2019-02-11T05:22:33.103Z,91.97
2019-02-11T05:25:35.752Z,90.75
2019-02-11T05:28:38.440Z,89.80
2019-02-11T05:31:41.071Z,90.68
2019-02-11T05:34:43.673Z,91.71
2019-02-11T05:37:46.425Z,91.41
2019-02-11T05:40:49.092Z,91.70
2019-02-11T05:43:51.750Z,91.61
2019-02-11T05:46:54.456Z,92.23
2019-02-11T05:49:57.077Z,92.93
2019-02-11T05:52:59.721Z,91.77
2019-02-11T05:56:02.586Z,89.89
2019-02-11T05:59:05.247Z,91.06
2019-02-11T06:02:07.910Z,92.29
2019-02-11T06:05:10.453Z,92.22
2019-02-11T06:08:13.105Z,93.17
2019-02-11T06:11:15.801Z,92.06
2019-02-11T06:14:18.466Z,91.81
2019-02-11T06:17:21.065Z,90.38
2019-02-11T06:20:23.780Z,91.90
2019-02-11T06:23:26.532Z,91.99
2019-02-11T06:26:29.172Z,91.20
2019-02-11T06:29:31.786Z,92.15
2019-02-11T06:32:34.637Z,92.15
2019-02-11T06:35:38.364Z,92.37
2019-02-11T06:38:41.019Z,91.42
2019-02-11T06:41:43.807Z,92.58
2019-02-11T06:44:46.605Z,92.35
2019-02-11T06:47:49.296Z,93.07
2019-02-11T06:50:51.916Z,93.71
2019-02-11T06:53:54.495Z,94.73
2019-02-11T06:56:57.361Z,94.88
2019-02-11T07:00:00.091Z,95.60
2019-02-11T07:03:03.118Z,96.82
2019-02-11T07:06:05.939Z,96.84
2019-02-11T07:09:08.712Z,97.38
2019-02-11T07:12:11.310Z,100.69
2019-02-11T07:15:21.577Z,102.03
2019-02-11T07:18:18.746Z,102.16
2019-02-11T07:21:21.490Z,102.01
2019-02-11T07:24:24.059Z,102.01
2019-02-11T07:27:26.796Z,100.78
2019-02-11T07:30:29.409Z,99.49
2019-02-11T07:33:32.763Z,99.32
2019-02-11T07:36:35.411Z,98.66
2019-02-11T07:39:38.291Z,97.98
2019-02-11T07:43:04.276Z,97.01
2019-02-11T07:46:19.725Z,96.94
2019-02-11T07:49:23.314Z,97.80
2019-02-11T07:52:27.119Z,97.18
2019-02-11T07:55:29.992Z,97.83
2019-02-11T07:58:32.751Z,98.62
2019-02-11T08:01:35.396Z,101.04
2019-02-11T08:04:37.987Z,101.38
2019-02-11T08:07:40.715Z,101.28
2019-02-11T08:10:43.352Z,101.36
2019-02-11T08:13:46.111Z,100.17
2019-02-11T08:16:48.938Z,99.79
2019-02-11T08:19:51.674Z,98.50
2019-02-11T08:22:54.265Z,97.73
2019-02-11T08:25:56.981Z,98.22
2019-02-11T08:28:59.734Z,98.71
2019-02-11T08:32:02.375Z,98.68
2019-02-11T08:35:05.260Z,97.81
2019-02-11T08:38:08.898Z,97.95
2019-02-11T08:41:11.683Z,98.02
2019-02-11T08:44:14.359Z,97.29
2019-02-11T08:47:16.959Z,97.82
2019-02-11T08:50:19.690Z,97.55
2019-02-11T08:53:22.376Z,98.01
2019-02-11T08:56:25.064Z,97.83
2019-02-11T08:59:27.778Z,97.24
2019-02-11T09:02:30.436Z,96.51
2019-02-11T09:05:33.011Z,96.64
2019-02-11T09:08:35.676Z,96.08
2019-02-11T09:11:39.315Z,94.83
2019-02-11T09:14:42.047Z,95.26
2019-02-11T09:17:44.690Z,93.93
2019-02-11T09:20:47.390Z,92.59
2019-02-11T09:23:50.117Z,91.49
2019-02-11T09:26:52.808Z,92.15
2019-02-11T09:29:55.435Z,90.41
2019-02-11T09:32:58.036Z,90.79
2019-02-11T09:36:00.649Z,90.51
2019-02-11T09:39:05.332Z,91.21
2019-02-11T09:42:08.021Z,90.45
2019-02-11T09:45:13.731Z,90.37
2019-02-11T09:48:16.365Z,90.82
2019-02-11T09:51:19.369Z,91.52
2019-02-11T09:54:21.951Z,88.67
2019-02-11T09:57:24.598Z,89.84
2019-02-11T10:00:27.560Z,88.76
2019-02-11T10:03:30.234Z,88.00
2019-02-11T10:06:32.871Z,87.17
2019-02-11T10:09:35.425Z,86.40
2019-02-11T10:12:38.050Z,86.90
2019-02-11T10:15:40.669Z,83.19
2019-02-11T10:18:43.296Z,82.96
2019-02-11T10:21:47.977Z,83.09
2019-02-11T10:24:50.605Z,84.53
2019-02-11T10:27:55.435Z,83.79
2019-02-11T10:30:58.064Z,84.76
2019-02-11T10:34:00.769Z,81.12
2019-02-11T10:37:03.420Z,79.97
2019-02-11T10:40:07.450Z,81.38
2019-02-11T10:43:10.070Z,81.11
2019-02-11T10:46:20.656Z,81.25
2019-02-11T10:49:17.259Z,78.45
2019-02-11T10:52:19.974Z,79.39
2019-02-11T10:55:22.622Z,81.49
2019-02-11T10:58:25.390Z,84.20
2019-02-11T11:01:29.054Z,84.05
2019-02-11T11:04:34.071Z,84.28
2019-02-11T11:07:36.758Z,82.50
2019-02-11T11:10:39.460Z,79.58
2019-02-11T11:13:42.056Z,76.97
2019-02-11T11:16:44.783Z,78.67
2019-02-11T11:19:48.469Z,77.42
2019-02-11T11:22:51.108Z,74.85
2019-02-11T11:25:54.255Z,76.82
2019-02-11T11:28:57.096Z,76.60
2019-02-11T11:31:59.762Z,76.57
2019-02-11T11:35:02.599Z,77.82
2019-02-11T11:38:06.335Z,75.94
2019-02-11T11:41:09.062Z,76.07
2019-02-11T11:44:12.714Z,80.53
2019-02-11T11:47:15.403Z,88.92
2019-02-11T11:50:18.074Z,90.88
2019-02-11T11:53:20.805Z,92.09
2019-02-11T11:56:23.460Z,92.77
2019-02-11T11:59:26.039Z,90.49
2019-02-11T12:02:28.866Z,89.82
2019-02-11T12:05:31.693Z,85.66
2019-02-11T12:08:34.506Z,82.25
2019-02-11T12:11:37.211Z,80.38
2019-02-11T12:14:39.949Z,86.91
2019-02-11T12:17:43.211Z,89.06
2019-02-11T12:20:46.744Z,85.00
2019-02-11T12:23:51.304Z,84.50
2019-02-11T12:26:54.023Z,86.75
2019-02-11T12:29:56.716Z,86.85
2019-02-11T12:32:59.530Z,87.33
2019-02-11T12:36:02.235Z,88.36
2019-02-11T12:39:04.936Z,87.83
2019-02-11T12:42:08.702Z,87.92
2019-02-11T12:45:13.567Z,86.54
2019-02-11T12:48:16.418Z,85.37
2019-02-11T12:51:19.142Z,83.66
2019-02-11T12:54:21.728Z,84.19
2019-02-11T12:57:24.437Z,82.15
2019-02-11T13:00:27.155Z,79.06
2019-02-11T13:03:29.862Z,79.74
2019-02-11T13:06:32.586Z,78.64
2019-02-11T13:09:35.360Z,81.64
2019-02-11T13:12:39.451Z,81.24
2019-02-11T13:15:59.886Z,78.45
2019-02-11T13:18:47.294Z,77.06
2019-02-11T13:21:50.002Z,77.71
2019-02-11T13:24:52.703Z,77.51
2019-02-11T13:27:55.441Z,75.35
2019-02-11T13:30:58.106Z,75.42
2019-02-11T13:34:00.881Z,74.13
2019-02-11T13:37:03.593Z,73.72
2019-02-11T13:40:06.968Z,72.56
2019-02-11T13:43:09.616Z,71.95
2019-02-11T13:46:12.594Z,71.95
2019-02-11T13:49:16.023Z,72.69
2019-02-11T13:52:18.858Z,71.40
2019-02-11T13:55:21.877Z,72.33
2019-02-11T13:58:24.651Z,71.27
2019-02-11T14:01:28.343Z,67.02
2019-02-11T14:04:31.050Z,69.79
2019-02-11T14:07:33.923Z,68.91
2019-02-11T14:10:36.749Z,68.31
2019-02-11T14:13:39.653Z,71.17
2019-02-11T14:16:42.478Z,68.81
2019-02-11T14:19:46.549Z,70.12
2019-02-11T14:22:49.290Z,70.73
2019-02-11T14:25:51.997Z,71.30
2019-02-11T14:28:54.684Z,68.73
2019-02-11T14:31:57.676Z,67.51
2019-02-11T14:35:00.792Z,67.93
2019-02-11T14:38:03.882Z,67.94
2019-02-11T14:41:06.732Z,68.73
2019-02-11T14:44:13.070Z,69.17
2019-02-11T14:47:14.401Z,70.20
2019-02-11T14:50:17.335Z,71.55
2019-02-11T14:53:20.202Z,70.59
2019-02-11T14:56:23.102Z,70.94
2019-02-11T14:59:25.801Z,71.25
2019-02-11T15:02:28.564Z,72.03
2019-02-11T15:05:31.320Z,72.94
2019-02-11T15:08:34.038Z,72.95
2019-02-11T15:11:36.637Z,71.88
2019-02-11T15:14:39.294Z,72.53
2019-02-11T15:17:42.113Z,73.70
2019-02-11T15:20:44.924Z,78.16
2019-02-11T15:23:47.583Z,80.32
2019-02-11T15:26:50.287Z,83.18
2019-02-11T15:29:52.890Z,82.43
2019-02-11T15:32:55.714Z,81.63
2019-02-11T15:35:58.483Z,80.90
2019-02-11T15:39:01.158Z,81.83
2019-02-11T15:42:04.031Z,80.60
2019-02-11T15:45:09.221Z,80.43
2019-02-11T15:48:11.873Z,79.94
2019-02-11T15:51:14.483Z,80.77
2019-02-11T15:54:17.317Z,80.84
2019-02-11T15:57:20.451Z,81.60
2019-02-11T16:00:23.207Z,81.51
2019-02-11T16:03:25.824Z,82.12
2019-02-11T16:06:28.533Z,81.84
2019-02-11T16:09:31.295Z,81.30
2019-02-11T16:12:34.118Z,82.61
2019-02-11T16:15:36.741Z,82.38
2019-02-11T16:18:39.351Z,80.54
2019-02-11T16:21:42.071Z,78.81
2019-02-11T16:24:44.827Z,79.16
2019-02-11T16:27:53.683Z,79.06
2019-02-11T16:30:56.456Z,79.54
2019-02-11T16:33:59.241Z,79.22
2019-02-11T16:37:02.123Z,81.24
2019-02-11T16:40:07.102Z,80.60
2019-02-11T16:43:09.685Z,82.36
2019-02-11T16:46:13.358Z,83.18
2019-02-11T16:49:16.110Z,84.08
2019-02-11T16:52:18.853Z,85.34
2019-02-11T16:55:21.433Z,86.89
2019-02-11T16:58:24.201Z,86.35
2019-02-11T17:01:26.863Z,83.40
2019-02-11T17:04:30.413Z,83.94
2019-02-11T17:07:41.346Z,82.99
2019-02-11T17:10:37.624Z,82.94
2019-02-11T17:13:40.210Z,82.10
2019-02-11T17:16:42.789Z,82.88
2019-02-11T17:19:45.497Z,82.28
2019-02-11T17:22:48.172Z,81.99
2019-02-11T17:25:51.002Z,81.16
2019-02-11T17:28:53.657Z,79.22
2019-02-11T17:31:56.370Z,77.86
2019-02-11T17:34:59.075Z,77.40
2019-02-11T17:38:01.672Z,78.23
2019-02-11T17:41:04.436Z,78.07
2019-02-11T17:44:07.182Z,78.39
2019-02-11T17:47:09.817Z,78.63
2019-02-11T17:50:12.518Z,79.32
2019-02-11T17:53:15.341Z,78.65
2019-02-11T17:56:18.146Z,79.19
2019-02-11T17:59:20.860Z,78.98
2019-02-11T18:02:23.707Z,79.24
2019-02-11T18:05:26.318Z,78.74
2019-02-11T18:08:29.161Z,79.35
2019-02-11T18:11:31.956Z,79.82
2019-02-11T18:14:34.926Z,80.31
2019-02-11T18:17:37.558Z,79.90
2019-02-11T18:20:40.269Z,79.05
2019-02-11T18:23:43.006Z,79.04
2019-02-11T18:26:45.678Z,78.06
2019-02-11T18:29:48.474Z,79.48
2019-02-11T18:32:51.200Z,76.89
2019-02-11T18:35:53.800Z,78.17
2019-02-11T18:38:58.355Z,78.71
2019-02-11T18:42:01.154Z,79.53
2019-02-11T18:45:12.211Z,79.95
2019-02-11T18:48:14.925Z,79.11
2019-02-11T18:51:17.722Z,78.38
2019-02-11T18:54:20.583Z,79.03
2019-02-11T18:57:23.362Z,79.21
2019-02-11T19:00:26.055Z,79.00
2019-02-11T19:03:28.803Z,79.61
2019-02-11T19:06:31.588Z,81.19
2019-02-11T19:09:34.284Z,80.85
2019-02-11T19:12:36.960Z,80.86
2019-02-11T19:15:39.701Z,80.28
2019-02-11T19:18:42.441Z,81.46
2019-02-11T19:21:45.055Z,81.80
2019-02-11T19:24:48.115Z,81.15
2019-02-11T19:27:50.880Z,81.53
2019-02-11T19:30:53.662Z,81.28
2019-02-11T19:33:56.450Z,81.44
2019-02-11T19:36:59.363Z,81.78
2019-02-11T19:40:02.222Z,81.57
2019-02-11T19:43:06.102Z,81.17
2019-02-11T19:46:08.807Z,82.04
2019-02-11T19:49:11.580Z,82.63
2019-02-11T19:52:14.252Z,82.63
2019-02-11T19:55:16.847Z,83.05
2019-02-11T19:58:19.511Z,83.38
2019-02-11T20:01:22.100Z,84.58
2019-02-11T20:04:24.746Z,84.84
2019-02-11T20:07:27.550Z,83.98
2019-02-11T20:10:31.613Z,83.99
2019-02-11T20:13:34.255Z,82.78
2019-02-11T20:16:37.019Z,82.57
2019-02-11T20:19:39.747Z,82.43
2019-02-11T20:22:42.406Z,83.34
2019-02-11T20:25:45.141Z,82.78
2019-02-11T20:28:48.061Z,82.47
2019-02-11T20:31:50.740Z,83.20
2019-02-11T20:34:53.503Z,81.76
2019-02-11T20:37:56.252Z,80.57
2019-02-11T20:40:59.378Z,81.87
2019-02-11T20:44:02.010Z,81.57
2019-02-11T20:47:04.719Z,81.21
2019-02-11T20:50:09.706Z,81.51
2019-02-11T20:53:12.250Z,81.41
2019-02-11T20:56:14.971Z,81.71
2019-02-11T20:59:17.643Z,80.16
2019-02-11T21:02:20.398Z,79.21
2019-02-11T21:05:23.191Z,79.35
2019-02-11T21:08:25.952Z,80.13
2019-02-11T21:11:28.691Z,79.99
2019-02-11T21:14:31.701Z,79.34
2019-02-11T21:17:34.580Z,77.61
2019-02-11T21:20:38.216Z,77.62
2019-02-11T21:23:40.965Z,78.36
2019-02-11T21:26:43.669Z,77.74
2019-02-11T21:29:46.427Z,77.59
2019-02-11T21:32:49.253Z,76.91
2019-02-11T21:35:52.125Z,76.69
2019-02-11T21:38:56.227Z,77.24
2019-02-11T21:41:58.870Z,75.10
2019-02-11T21:45:01.592Z,74.90
2019-02-11T21:48:04.205Z,73.89
2019-02-11T21:51:07.002Z,75.97
2019-02-11T21:54:09.707Z,76.12
2019-02-11T21:57:12.331Z,75.20
2019-02-11T22:00:16.672Z,75.54
2019-02-11T22:03:19.450Z,73.93
2019-02-11T22:06:22.141Z,74.44
2019-02-11T22:09:25.041Z,74.94
2019-02-11T22:12:27.785Z,75.39
2019-02-11T22:15:30.542Z,74.02
2019-02-11T22:18:33.225Z,75.31
2019-02-11T22:21:35.794Z,74.82
2019-02-11T22:24:38.526Z,75.01
2019-02-11T22:27:41.369Z,76.15
2019-02-11T22:30:44.842Z,74.50
2019-02-11T22:33:47.490Z,75.01
2019-02-11T22:36:50.359Z,75.26
2019-02-11T22:39:52.991Z,75.27
2019-02-11T22:42:55.811Z,75.80
2019-02-11T22:45:58.466Z,73.90
2019-02-11T22:49:01.164Z,73.59
2019-02-11T22:52:03.875Z,72.18
2019-02-11T22:55:07.481Z,72.69
2019-02-11T22:58:10.249Z,71.31
2019-02-11T23:01:14.071Z,70.66
2019-02-11T23:04:16.785Z,72.01
2019-02-11T23:07:19.471Z,71.14
2019-02-11T23:10:22.206Z,71.04
2019-02-11T23:13:24.915Z,71.61
2019-02-11T23:16:29.459Z,72.70
2019-02-11T23:19:32.054Z,72.87
2019-02-11T23:22:34.666Z,74.02
2019-02-11T23:25:37.401Z,75.10
2019-02-11T23:28:40.011Z,75.62
2019-02-11T23:31:42.638Z,76.06
2019-02-11T23:34:46.465Z,76.26
2019-02-11T23:37:49.155Z,77.22
2019-02-11T23:40:51.817Z,78.27
2019-02-11T23:43:54.586Z,79.61
2019-02-11T23:46:57.232Z,80.79
2019-02-11T23:49:59.852Z,81.22
2019-02-11T23:53:02.530Z,81.02
2019-02-11T23:56:05.301Z,79.90
2019-02-11T23:59:08.110Z,80.41
